Time;durP1;ratioP1;P1;durP2;ratioP2;P2;SDS_P1;SDS_P2;PMS_P1;PMS_P2;Temp;Humidity;BMP_temperature;BMP_pressure;BME280_temperature;BME280_humidity;BME280_pressure;Samples;Min_cycle;Max_cycle;Signal;HPM_P1;HPM_P2
2022/01/31 00:01:31;;;;;;;16.50;3.47;;;4.30;99.90;;;;;;5197175;28;20568;-50
2022/01/31 00:04:02;;;;;;;9.43;2.93;;;4.30;99.90;;;;;;5198515;28;20198;-47
2022/01/31 00:06:32;;;;;;;13.77;4.33;;;4.30;99.90;;;;;;5211441;22;20208;-50
2022/01/31 00:09:03;;;;;;;18.30;3.83;;;4.30;99.90;;;;;;5196574;28;20299;-50
2022/01/31 00:11:41;;;;;;;16.13;3.73;;;4.30;99.90;;;;;;5184758;28;20258;-49
2022/01/31 00:14:29;;;;;;;25.67;4.13;;;4.30;99.90;;;;;;5188060;28;20185;-49
2022/01/31 00:17:00;;;;;;;12.03;3.20;;;4.30;99.90;;;;;;5195348;28;20989;-49
2022/01/31 00:19:32;;;;;;;20.87;4.50;;;4.40;99.90;;;;;;5175554;28;20433;-50
2022/01/31 00:22:06;;;;;;;19.53;4.07;;;4.40;99.90;;;;;;5190877;28;20435;-49
2022/01/31 00:24:38;;;;;;;26.23;4.33;;;4.30;99.90;;;;;;5200474;28;20447;-49
2022/01/31 00:27:09;;;;;;;12.77;3.37;;;4.40;99.90;;;;;;5198552;28;21918;-49
2022/01/31 00:29:39;;;;;;;41.27;4.67;;;4.40;99.90;;;;;;5183688;28;20527;-50
2022/01/31 00:32:10;;;;;;;19.53;3.23;;;4.30;99.90;;;;;;5201032;28;20192;-51
2022/01/31 00:34:40;;;;;;;15.27;3.70;;;4.20;99.90;;;;;;5177633;28;20211;-50
2022/01/31 00:37:11;;;;;;;18.23;3.50;;;4.20;99.90;;;;;;5181977;28;20208;-49
2022/01/31 00:39:41;;;;;;;23.80;5.17;;;4.20;99.90;;;;;;5194804;28;20203;-50
2022/01/31 00:42:12;;;;;;;13.40;3.50;;;4.20;99.90;;;;;;5178065;28;20185;-49
2022/01/31 00:44:53;;;;;;;25.20;4.87;;;4.20;99.90;;;;;;5203083;28;20188;-50
2022/01/31 00:47:26;;;;;;;13.80;3.00;;;4.20;99.90;;;;;;5181578;28;20247;-48
2022/01/31 00:50:07;;;;;;;28.87;4.40;;;4.20;99.90;;;;;;5188607;28;20908;-49
2022/01/31 00:52:41;;;;;;;12.57;2.90;;;4.20;99.90;;;;;;5196066;28;20430;-50
2022/01/31 00:55:13;;;;;;;33.37;5.03;;;4.10;99.90;;;;;;5185027;28;20422;-51
2022/01/31 00:57:44;;;;;;;36.83;5.53;;;4.10;99.90;;;;;;5199131;28;20489;-50
2022/01/31 01:00:16;;;;;;;21.73;5.10;;;4.10;99.90;;;;;;5191056;28;20438;-51
2022/01/31 01:02:47;;;;;;;32.90;5.07;;;4.10;99.90;;;;;;5193831;28;20216;-49
2022/01/31 01:05:17;;;;;;;27.70;5.90;;;4.20;99.90;;;;;;5192597;28;20482;-49
2022/01/31 01:07:48;;;;;;;34.17;4.93;;;4.20;99.90;;;;;;5185332;28;20212;-50
2022/01/31 01:10:19;;;;;;;35.47;5.60;;;4.10;99.90;;;;;;5184688;28;20310;-50
2022/01/31 01:12:49;;;;;;;24.53;4.93;;;4.10;99.90;;;;;;5197508;28;20184;-53
2022/01/31 01:15:23;;;;;;;30.37;5.30;;;4.10;99.90;;;;;;5175421;28;20923;-50
2022/01/31 01:17:54;;;;;;;26.13;6.67;;;4.00;99.90;;;;;;5196246;28;20211;-49
2022/01/31 01:20:25;;;;;;;20.53;4.43;;;4.00;99.90;;;;;;5180436;28;20480;-49
2022/01/31 01:22:55;;;;;;;23.90;4.30;;;3.80;99.90;;;;;;5176903;28;20607;-52
2022/01/31 01:25:26;;;;;;;34.17;4.77;;;3.70;99.90;;;;;;5194069;28;20210;-49
2022/01/31 01:27:56;;;;;;;31.93;5.23;;;3.70;99.90;;;;;;5180407;28;20318;-52
2022/01/31 01:30:27;;;;;;;27.17;4.27;;;3.70;99.90;;;;;;5195053;28;20338;-49
2022/01/31 01:35:34;;;;;;;28.43;5.37;;;3.70;99.90;;;;;;5198866;28;20525;-51
2022/01/31 01:38:08;;;;;;;22.43;4.30;;;3.70;99.90;;;;;;5194512;28;20190;-50
2022/01/31 01:40:40;;;;;;;30.83;5.03;;;3.70;99.90;;;;;;5195276;28;20445;-52
2022/01/31 01:43:13;;;;;;;30.23;5.13;;;3.60;99.90;;;;;;5200431;28;20525;-49
2022/01/31 01:45:44;;;;;;;17.23;4.83;;;3.70;99.90;;;;;;5197637;28;20494;-49
2022/01/31 01:48:14;;;;;;;21.57;4.57;;;3.70;99.90;;;;;;5180794;28;20767;-50
2022/01/31 01:50:45;;;;;;;26.70;5.90;;;3.70;99.90;;;;;;5195366;28;20458;-52
2022/01/31 01:53:17;;;;;;;26.80;4.83;;;3.70;99.90;;;;;;5167587;28;20196;-50
2022/01/31 01:55:51;;;;;;;27.70;4.57;;;3.70;99.90;;;;;;5202433;28;20450;-49
2022/01/31 01:58:23;;;;;;;21.17;5.03;;;3.70;99.90;;;;;;5195080;28;20552;-51
2022/01/31 02:01:02;;;;;;;33.90;5.20;;;3.70;99.90;;;;;;5176945;28;20427;-50
2022/01/31 02:03:36;;;;;;;20.50;4.10;;;3.70;99.90;;;;;;5175118;28;20434;-50
2022/01/31 02:06:07;;;;;;;23.90;5.40;;;3.80;99.90;;;;;;5195965;28;20470;-50
2022/01/31 02:08:42;;;;;;;24.87;5.87;;;3.80;99.90;;;;;;5197265;28;20474;-53
2022/01/31 02:11:13;;;;;;;25.03;4.83;;;3.80;99.90;;;;;;5167610;28;20925;-49
2022/01/31 02:13:44;;;;;;;31.80;5.63;;;3.80;99.90;;;;;;5195425;28;20500;-50
2022/01/31 02:16:17;;;;;;;30.13;5.20;;;3.80;99.90;;;;;;5180030;28;20648;-49
2022/01/31 02:18:50;;;;;;;28.13;5.00;;;3.80;99.90;;;;;;5200484;28;20212;-50
2022/01/31 02:21:20;;;;;;;25.73;5.47;;;3.80;99.90;;;;;;5183353;28;20430;-49
2022/01/31 02:23:52;;;;;;;28.77;5.53;;;3.70;99.90;;;;;;5194146;28;20443;-49
2022/01/31 02:26:23;;;;;;;39.70;6.10;;;3.70;99.90;;;;;;5201748;28;20249;-51
2022/01/31 02:28:53;;;;;;;34.60;5.43;;;3.70;99.90;;;;;;5183478;28;20913;-49
2022/01/31 02:31:24;;;;;;;24.10;4.90;;;3.80;99.90;;;;;;5209368;28;20260;-50
2022/01/31 02:33:54;;;;;;;26.33;4.50;;;3.70;99.90;;;;;;5175774;28;20196;-49
2022/01/31 02:36:25;;;;;;;25.73;5.33;;;3.80;99.90;;;;;;5176612;28;20183;-49
2022/01/31 02:38:55;;;;;;;42.07;6.00;;;3.80;99.90;;;;;;5177243;28;20249;-49
2022/01/31 02:41:27;;;;;;;24.70;4.77;;;3.80;99.90;;;;;;5202612;28;20196;-49
2022/01/31 02:43:59;;;;;;;25.93;4.27;;;3.80;99.90;;;;;;5205318;28;20507;-52
2022/01/31 02:46:32;;;;;;;14.63;3.90;;;3.80;99.90;;;;;;5185900;28;20463;-50
2022/01/31 02:49:02;;;;;;;28.27;4.73;;;3.80;99.90;;;;;;5186453;28;20938;-51
2022/01/31 02:51:37;;;;;;;31.27;5.87;;;3.70;99.90;;;;;;5196982;28;20465;-49
2022/01/31 02:54:08;;;;;;;25.43;6.07;;;3.70;99.90;;;;;;5178135;28;20536;-51
2022/01/31 02:56:40;;;;;;;23.67;5.77;;;3.80;99.90;;;;;;5189175;28;20430;-50
2022/01/31 02:59:11;;;;;;;19.47;5.33;;;3.70;99.90;;;;;;5176968;28;20585;-52
2022/01/31 03:01:41;;;;;;;23.30;4.93;;;3.90;99.90;;;;;;5208041;28;20510;-51
2022/01/31 03:04:12;;;;;;;34.17;5.77;;;3.70;99.90;;;;;;5188842;28;20234;-49
2022/01/31 03:06:49;;;;;;;22.17;5.07;;;3.70;99.90;;;;;;5201991;28;20223;-49
2022/01/31 03:09:19;;;;;;;20.77;4.20;;;3.60;99.90;;;;;;5192460;28;20176;-51
2022/01/31 03:11:50;;;;;;;26.50;4.97;;;3.60;99.90;;;;;;5197435;28;21002;-50
2022/01/31 03:14:21;;;;;;;24.70;4.97;;;3.60;99.90;;;;;;5195256;28;20177;-50
2022/01/31 03:16:52;;;;;;;50.03;5.43;;;3.70;99.90;;;;;;5181469;28;20213;-49
2022/01/31 03:19:22;;;;;;;22.80;3.90;;;3.70;99.90;;;;;;5202377;28;20193;-51
2022/01/31 03:21:53;;;;;;;25.80;4.87;;;3.70;99.90;;;;;;5206843;28;20279;-50
2022/01/31 03:24:23;;;;;;;32.30;5.20;;;3.80;99.90;;;;;;5183772;28;20637;-50
2022/01/31 03:26:54;;;;;;;22.97;5.70;;;3.80;99.90;;;;;;5202281;28;20321;-50
2022/01/31 03:29:25;;;;;;;23.33;4.43;;;3.70;99.90;;;;;;5197790;28;20363;-51
2022/01/31 03:31:55;;;;;;;29.10;4.93;;;3.70;99.90;;;;;;5180344;28;20188;-48
2022/01/31 03:34:26;;;;;;;21.13;4.70;;;3.80;99.90;;;;;;5205846;28;20439;-49
2022/01/31 03:36:57;;;;;;;37.93;5.00;;;3.70;99.90;;;;;;5201060;28;20216;-48
2022/01/31 03:39:27;;;;;;;17.90;4.70;;;3.80;99.90;;;;;;5179968;28;20193;-50
2022/01/31 03:41:58;;;;;;;23.87;4.27;;;3.70;99.90;;;;;;5184941;28;20203;-50
2022/01/31 03:44:29;;;;;;;27.13;5.00;;;3.70;99.90;;;;;;5196068;28;20208;-50
2022/01/31 03:47:00;;;;;;;19.13;4.73;;;3.70;99.90;;;;;;5175444;28;20235;-50
2022/01/31 03:49:31;;;;;;;17.90;4.57;;;3.70;99.90;;;;;;5197860;28;20462;-49
2022/01/31 03:52:01;;;;;;;28.47;4.60;;;3.70;99.90;;;;;;5195753;28;20203;-49
2022/01/31 03:54:32;;;;;;;25.70;4.30;;;3.80;99.90;;;;;;5200706;28;20248;-49
2022/01/31 03:57:06;;;;;;;47.67;5.27;;;3.80;99.90;;;;;;5196068;28;20216;-49
2022/01/31 03:59:37;;;;;;;31.80;5.70;;;3.70;99.90;;;;;;5187598;28;20287;-48
2022/01/31 04:02:07;;;;;;;25.87;4.73;;;3.70;99.90;;;;;;5201809;28;20444;-51
2022/01/31 04:04:38;;;;;;;27.30;5.07;;;3.60;99.90;;;;;;5196921;28;20518;-49
2022/01/31 04:07:08;;;;;;;18.97;5.03;;;3.60;99.90;;;;;;5181274;28;20232;-49
2022/01/31 04:09:39;;;;;;;26.20;5.50;;;3.60;99.90;;;;;;5185102;28;20279;-51
2022/01/31 04:12:10;;;;;;;34.03;6.90;;;3.50;99.90;;;;;;5179457;28;20180;-52
2022/01/31 04:14:43;;;;;;;18.77;4.50;;;3.50;99.90;;;;;;5200746;28;20241;-49
2022/01/31 04:17:14;;;;;;;21.17;4.80;;;3.50;99.90;;;;;;5201743;28;20777;-49
2022/01/31 04:19:45;;;;;;;20.90;4.40;;;3.50;99.90;;;;;;5177156;28;20511;-49
2022/01/31 04:22:18;;;;;;;19.67;5.03;;;3.50;99.90;;;;;;5192498;28;20666;-51
2022/01/31 04:24:54;;;;;;;22.93;4.70;;;3.50;99.90;;;;;;5201111;28;20470;-51
2022/01/31 04:27:28;;;;;;;24.93;4.53;;;3.40;99.90;;;;;;5198314;28;20502;-50
2022/01/31 04:29:59;;;;;;;17.57;4.37;;;3.40;99.90;;;;;;5182222;28;20439;-49
2022/01/31 04:32:29;;;;;;;23.77;5.00;;;3.30;99.90;;;;;;5181816;28;20441;-50
2022/01/31 04:35:00;;;;;;;24.33;5.00;;;3.30;99.90;;;;;;5192669;28;20188;-50
2022/01/31 04:37:30;;;;;;;18.90;4.37;;;3.30;99.90;;;;;;5202396;28;20655;-49
2022/01/31 04:40:01;;;;;;;22.23;4.20;;;3.30;99.90;;;;;;5199551;28;20283;-49
2022/01/31 04:42:32;;;;;;;28.77;5.70;;;3.30;99.90;;;;;;5204140;28;20226;-50
2022/01/31 04:45:04;;;;;;;14.80;4.40;;;3.30;99.90;;;;;;5181772;28;20266;-50
2022/01/31 04:47:34;;;;;;;26.00;5.33;;;3.30;99.90;;;;;;5190398;28;20625;-50
2022/01/31 04:50:06;;;;;;;38.50;5.77;;;3.30;99.90;;;;;;5193646;28;20430;-50
2022/01/31 04:52:38;;;;;;;28.30;5.47;;;3.30;99.90;;;;;;5183621;28;20181;-50
2022/01/31 04:55:10;;;;;;;24.10;5.37;;;3.20;99.90;;;;;;5201175;28;20511;-49
2022/01/31 04:57:41;;;;;;;30.73;5.60;;;3.30;99.90;;;;;;5183872;28;20496;-52
2022/01/31 05:00:12;;;;;;;15.30;5.00;;;3.30;99.90;;;;;;5182815;28;20861;-50
2022/01/31 05:02:42;;;;;;;18.23;4.67;;;3.20;99.90;;;;;;5195065;28;20302;-49
2022/01/31 05:05:13;;;;;;;29.47;5.40;;;3.20;99.90;;;;;;5180887;28;20427;-50
2022/01/31 05:07:43;;;;;;;21.30;4.23;;;3.30;99.90;;;;;;5163814;28;20246;-50
2022/01/31 05:10:17;;;;;;;17.63;4.30;;;3.30;99.90;;;;;;5180329;28;20168;-50
2022/01/31 05:12:48;;;;;;;20.80;4.53;;;3.30;99.90;;;;;;5173410;28;20242;-50
2022/01/31 05:15:18;;;;;;;31.87;5.53;;;3.30;99.90;;;;;;5196481;28;20431;-50
2022/01/31 05:17:49;;;;;;;32.37;4.00;;;3.30;99.90;;;;;;5196378;28;20269;-50
2022/01/31 05:20:19;;;;;;;30.73;5.40;;;3.30;99.90;;;;;;5191084;28;20547;-49
2022/01/31 05:22:50;;;;;;;21.03;4.90;;;3.50;99.90;;;;;;5199556;28;20522;-49
2022/01/31 05:25:20;;;;;;;19.83;4.80;;;3.40;99.90;;;;;;5200705;28;20200;-50
2022/01/31 05:27:51;;;;;;;20.63;4.70;;;3.40;99.90;;;;;;5206001;28;20272;-49
2022/01/31 05:30:23;;;;;;;44.07;6.40;;;3.40;99.90;;;;;;5199316;28;20220;-49
2022/01/31 05:32:54;;;;;;;26.07;5.30;;;3.40;99.90;;;;;;5180432;28;20184;-50
2022/01/31 05:35:24;;;;;;;27.23;5.90;;;3.40;99.90;;;;;;5186918;28;20423;-49
2022/01/31 05:37:55;;;;;;;33.47;5.57;;;3.50;99.90;;;;;;5200123;28;20533;-50
2022/01/31 05:40:25;;;;;;;22.37;4.13;;;3.40;99.90;;;;;;5196883;28;20594;-50
2022/01/31 05:42:56;;;;;;;16.17;4.80;;;3.40;99.90;;;;;;5187822;28;20222;-50
2022/01/31 05:45:26;;;;;;;17.73;4.70;;;3.30;99.90;;;;;;5193700;28;20199;-50
2022/01/31 05:47:57;;;;;;;23.57;4.97;;;3.30;99.90;;;;;;5200933;28;20609;-50
2022/01/31 05:50:27;;;;;;;31.97;6.43;;;3.30;99.90;;;;;;5196599;28;20179;-53
2022/01/31 05:52:58;;;;;;;18.40;4.13;;;3.30;99.90;;;;;;5193914;28;20492;-49
2022/01/31 05:55:29;;;;;;;21.77;4.53;;;3.30;99.90;;;;;;5182251;28;20452;-50
2022/01/31 05:57:59;;;;;;;40.50;6.43;;;3.30;99.90;;;;;;5180141;28;20675;-50
2022/01/31 06:00:30;;;;;;;22.60;5.13;;;3.30;99.90;;;;;;5197416;28;20188;-49
2022/01/31 06:03:00;;;;;;;24.57;6.53;;;3.30;99.90;;;;;;5196043;28;20195;-53
2022/01/31 06:05:33;;;;;;;33.60;7.20;;;3.30;99.90;;;;;;5179491;28;20670;-52
2022/01/31 06:08:04;;;;;;;20.03;5.00;;;3.30;99.90;;;;;;5194653;23;20251;-47
2022/01/31 06:10:41;;;;;;;30.07;5.67;;;3.20;99.90;;;;;;5136425;28;20526;-48
2022/01/31 06:13:12;;;;;;;31.67;6.00;;;3.30;99.90;;;;;;5186544;28;20230;-50
2022/01/31 06:15:42;;;;;;;32.40;6.43;;;3.20;99.90;;;;;;5185483;28;20447;-47
2022/01/31 06:18:13;;;;;;;23.60;6.63;;;3.20;99.90;;;;;;5182485;28;20204;-49
2022/01/31 06:20:44;;;;;;;22.10;5.33;;;3.20;99.90;;;;;;5184666;28;20184;-46
2022/01/31 06:23:14;;;;;;;14.53;3.70;;;3.20;99.90;;;;;;5175217;28;20617;-46
2022/01/31 06:25:46;;;;;;;24.20;5.30;;;3.30;99.90;;;;;;5161724;28;20656;-47
2022/01/31 06:28:17;;;;;;;21.17;4.40;;;3.20;99.90;;;;;;5183271;28;20192;-47
2022/01/31 06:30:48;;;;;;;31.67;6.43;;;3.20;99.90;;;;;;5166525;28;20778;-48
2022/01/31 06:33:18;;;;;;;20.17;6.33;;;3.20;99.90;;;;;;5180712;28;20539;-48
2022/01/31 06:35:49;;;;;;;14.40;4.40;;;3.30;99.90;;;;;;5180971;28;20524;-47
2022/01/31 06:38:21;;;;;;;23.00;5.47;;;3.30;99.90;;;;;;5182915;28;20220;-48
2022/01/31 06:40:52;;;;;;;21.83;5.10;;;3.20;99.90;;;;;;5178584;28;20418;-48
2022/01/31 06:43:22;;;;;;;33.57;7.40;;;3.20;99.90;;;;;;5174889;28;20436;-48
2022/01/31 06:45:53;;;;;;;32.73;8.07;;;3.20;99.90;;;;;;5162072;28;20226;-48
2022/01/31 06:48:23;;;;;;;29.43;8.23;;;3.20;99.90;;;;;;5166482;28;20203;-49
2022/01/31 06:50:54;;;;;;;23.53;5.50;;;3.30;99.90;;;;;;5180193;28;20185;-49
2022/01/31 06:53:27;;;;;;;19.47;4.43;;;3.30;99.90;;;;;;5175285;28;20188;-47
2022/01/31 06:55:58;;;;;;;29.17;7.07;;;3.30;99.90;;;;;;5161571;28;20196;-49
2022/01/31 06:58:28;;;;;;;29.53;6.50;;;3.30;99.90;;;;;;5174808;28;20991;-48
2022/01/31 07:00:59;;;;;;;18.10;5.20;;;3.50;99.90;;;;;;5178369;28;20188;-48
2022/01/31 07:03:30;;;;;;;36.93;7.40;;;3.50;99.90;;;;;;5178273;28;20181;-48
2022/01/31 07:06:00;;;;;;;19.13;5.37;;;3.50;99.90;;;;;;5178870;28;20197;-47
2022/01/31 07:08:31;;;;;;;35.63;7.40;;;3.30;99.90;;;;;;5180911;28;20239;-48
2022/01/31 07:11:01;;;;;;;23.37;5.97;;;3.50;99.90;;;;;;5182787;28;20203;-48
2022/01/31 07:16:04;;;;;;;25.80;5.80;;;3.30;99.90;;;;;;5180682;28;20192;-49
2022/01/31 07:18:36;;;;;;;25.13;5.70;;;3.40;99.90;;;;;;5173508;28;20598;-47
2022/01/31 07:21:11;;;;;;;25.57;5.80;;;3.60;99.90;;;;;;5179821;28;20494;-48
2022/01/31 07:26:18;;;;;;;28.27;5.90;;;3.50;99.90;;;;;;5180653;28;20621;-48
2022/01/31 07:28:49;;;;;;;33.30;7.67;;;3.30;99.90;;;;;;5178790;28;20507;-49
2022/01/31 07:31:19;;;;;;;25.00;6.13;;;3.30;99.90;;;;;;5177923;28;20180;-49
2022/01/31 07:33:50;;;;;;;24.03;6.97;;;3.20;99.90;;;;;;5160096;28;20184;-51
2022/01/31 07:36:22;;;;;;;25.87;7.13;;;3.20;99.90;;;;;;5177288;28;20181;-47
2022/01/31 07:38:52;;;;;;;49.97;8.07;;;3.40;99.90;;;;;;5176105;28;20205;-48
2022/01/31 07:41:23;;;;;;;32.03;7.10;;;3.40;99.90;;;;;;5168244;28;21099;-48
2022/01/31 07:43:54;;;;;;;38.87;7.50;;;3.30;99.90;;;;;;5159810;28;20188;-49
2022/01/31 07:46:25;;;;;;;37.70;9.40;;;3.40;99.90;;;;;;5182851;28;20687;-51
2022/01/31 07:48:55;;;;;;;50.67;9.87;;;3.40;99.90;;;;;;5190360;28;20195;-49
2022/01/31 07:51:26;;;;;;;21.70;6.53;;;3.70;99.90;;;;;;5181280;28;20443;-48
2022/01/31 07:53:56;;;;;;;37.50;7.70;;;3.50;99.90;;;;;;5169422;28;20748;-48
2022/01/31 07:56:27;;;;;;;42.00;13.33;;;3.50;99.90;;;;;;5178664;28;20197;-49
2022/01/31 07:58:57;;;;;;;37.43;11.17;;;3.70;99.90;;;;;;5181770;28;21576;-49
2022/01/31 08:01:28;;;;;;;38.27;8.43;;;3.60;99.90;;;;;;5175439;28;20275;-49
2022/01/31 08:03:59;;;;;;;29.80;8.50;;;3.70;99.90;;;;;;5176229;28;20191;-49
2022/01/31 08:06:29;;;;;;;36.70;10.50;;;3.80;99.90;;;;;;5162084;28;20663;-49
2022/01/31 08:09:00;;;;;;;57.53;10.73;;;3.70;99.90;;;;;;5160214;28;20297;-51
2022/01/31 08:11:33;;;;;;;44.00;9.50;;;3.60;99.90;;;;;;5179925;28;20314;-48
2022/01/31 08:14:09;;;;;;;47.80;6.93;;;3.50;99.90;;;;;;5162986;28;20725;-51
2022/01/31 08:16:42;;;;;;;26.17;7.87;;;3.50;99.90;;;;;;5158065;28;20801;-48
2022/01/31 08:19:13;;;;;;;34.23;7.83;;;3.60;99.90;;;;;;5182280;28;20454;-49
2022/01/31 08:21:43;;;;;;;30.03;9.10;;;3.70;99.90;;;;;;5160041;28;20436;-48
2022/01/31 08:24:14;;;;;;;31.87;7.57;;;3.60;99.90;;;;;;5177589;28;20185;-49
2022/01/31 08:26:44;;;;;;;35.10;8.10;;;3.60;99.90;;;;;;5180236;28;20204;-50
2022/01/31 08:29:25;;;;;;;41.97;10.70;;;3.70;99.90;;;;;;5172933;28;20882;-48
2022/01/31 08:31:57;;;;;;;35.13;8.53;;;3.80;99.90;;;;;;5175803;28;20188;-47
2022/01/31 08:37:31;;;;;;;35.67;7.60;;;3.80;99.90;;;;;;5123669;28;20515;-48
2022/01/31 08:40:02;;;;;;;40.20;7.80;;;3.90;99.90;;;;;;5175397;28;20431;-48
2022/01/31 08:42:33;;;;;;;30.43;7.10;;;3.90;99.90;;;;;;5177778;28;20188;-48
2022/01/31 08:45:04;;;;;;;40.33;5.57;;;3.70;99.90;;;;;;5180700;28;20299;-50
2022/01/31 08:47:40;;;;;;;31.83;7.83;;;3.70;99.90;;;;;;5173586;28;20479;-49
2022/01/31 08:50:11;;;;;;;26.63;7.27;;;3.70;99.90;;;;;;5174663;28;21446;-49
2022/01/31 08:52:41;;;;;;;48.67;7.63;;;3.80;99.90;;;;;;5165317;28;20490;-50
2022/01/31 08:55:12;;;;;;;42.57;6.80;;;3.90;99.90;;;;;;5179525;28;20447;-50
2022/01/31 08:57:43;;;;;;;41.10;6.70;;;3.80;99.90;;;;;;5175686;28;20244;-50
2022/01/31 09:00:14;;;;;;;26.43;5.43;;;3.80;99.90;;;;;;5177579;28;20215;-49
2022/01/31 09:02:59;;;;;;;18.73;7.57;;;3.90;99.90;;;;;;5147731;28;20818;-49
2022/01/31 09:05:30;;;;;;;24.70;6.50;;;4.10;99.90;;;;;;5160214;28;20498;-49
2022/01/31 09:08:00;;;;;;;32.07;6.87;;;4.00;99.90;;;;;;5178139;28;20483;-51
2022/01/31 09:10:31;;;;;;;29.50;6.27;;;4.20;99.90;;;;;;5162176;28;20283;-50
2022/01/31 09:13:02;;;;;;;31.53;6.53;;;4.10;99.90;;;;;;5179727;28;20663;-50
2022/01/31 09:15:32;;;;;;;27.37;6.20;;;4.00;99.90;;;;;;5177334;28;20191;-49
2022/01/31 09:18:03;;;;;;;28.37;7.70;;;4.00;99.90;;;;;;5176304;28;20221;-49
2022/01/31 09:20:34;;;;;;;20.60;5.50;;;4.00;99.90;;;;;;5174022;28;20200;-48
2022/01/31 09:23:05;;;;;;;23.17;7.20;;;4.20;99.90;;;;;;5180065;28;20191;-50
2022/01/31 09:25:43;;;;;;;35.00;5.70;;;4.20;99.90;;;;;;5140222;28;20193;-49
2022/01/31 09:28:14;;;;;;;29.70;5.63;;;4.20;99.90;;;;;;5168805;28;20997;-49
2022/01/31 09:30:46;;;;;;;24.90;6.33;;;4.40;99.90;;;;;;5139577;28;20446;-50
2022/01/31 09:33:16;;;;;;;38.00;8.40;;;4.50;99.90;;;;;;5160536;28;20440;-50
2022/01/31 09:35:47;;;;;;;27.27;8.33;;;4.60;99.90;;;;;;5144200;28;20527;-50
2022/01/31 09:38:24;;;;;;;31.03;8.07;;;4.70;99.90;;;;;;5174288;28;20570;-50
2022/01/31 09:40:54;;;;;;;32.20;11.10;;;4.70;99.90;;;;;;5175912;28;20420;-49
2022/01/31 09:44:15;;;;;;;26.60;8.50;;;4.80;99.90;;;;;;5166137;28;20440;-49
2022/01/31 09:46:44;;;;;;;27.90;7.67;;;4.80;99.90;;;;;;5169847;28;20695;-48
2022/01/31 09:49:10;;;;;;;26.10;6.40;;;5.00;99.90;;;;;;5176959;28;20832;-49
2022/01/31 09:51:41;;;;;;;41.33;8.30;;;4.90;99.90;;;;;;5178062;28;20504;-49
2022/01/31 09:54:12;;;;;;;21.10;5.83;;;4.90;99.90;;;;;;5161030;28;20274;-49
2022/01/31 09:56:45;;;;;;;33.67;6.10;;;4.90;99.90;;;;;;5175207;28;20539;-49
2022/01/31 09:59:17;;;;;;;23.80;6.40;;;4.90;99.90;;;;;;5183632;28;20514;-50
2022/01/31 10:01:54;;;;;;;26.70;6.50;;;4.80;99.90;;;;;;5179530;28;20990;-48
2022/01/31 10:04:35;;;;;;;38.93;6.63;;;4.80;99.90;;;;;;5170825;28;20804;-49
2022/01/31 10:07:07;;;;;;;24.90;5.50;;;4.80;99.90;;;;;;5175330;28;20509;-49
2022/01/31 10:09:43;;;;;;;25.80;6.07;;;4.80;99.90;;;;;;5173272;28;20441;-47
2022/01/31 10:17:45;;;;;;;18.73;4.30;;;5.20;99.90;;;;;;5182756;28;20541;-49
2022/01/31 10:20:25;;;;;;;31.73;5.77;;;5.20;99.90;;;;;;5179339;28;20429;-50
2022/01/31 10:23:05;;;;;;;11.70;6.00;;;5.40;99.90;;;;;;5177399;28;20524;-53
2022/01/31 10:25:36;;;;;;;14.33;5.93;;;5.30;99.90;;;;;;5180973;28;20784;-49
2022/01/31 10:28:16;;;;;;;28.80;7.10;;;5.30;99.90;;;;;;5162758;28;20469;-49
2022/01/31 10:30:50;;;;;;;23.00;5.57;;;5.30;99.90;;;;;;5177958;28;20186;-49
2022/01/31 10:33:24;;;;;;;21.17;5.80;;;5.20;99.90;;;;;;5161264;28;20434;-48
2022/01/31 10:35:55;;;;;;;33.73;6.27;;;5.20;99.90;;;;;;5175234;28;20440;-49
2022/01/31 10:38:33;;;;;;;20.87;6.67;;;5.10;99.90;;;;;;5168974;28;20448;-51
2022/01/31 12:27:28;;;;;;;23.87;5.63;;;5.60;99.90;;;;;;5158284;28;20482;-51
2022/01/31 12:30:00;;;;;;;34.77;6.30;;;5.90;99.90;;;;;;5155821;28;20515;-51
2022/01/31 12:32:36;;;;;;;25.87;6.80;;;5.90;99.90;;;;;;5157673;28;20475;-50
2022/01/31 12:35:12;;;;;;;26.60;5.90;;;5.60;99.90;;;;;;5157266;28;20500;-49
2022/01/31 12:37:51;;;;;;;24.53;6.13;;;5.50;99.90;;;;;;5127857;28;20527;-49
2022/01/31 12:40:29;;;;;;;28.33;7.13;;;5.50;99.90;;;;;;5158645;28;20465;-48
2022/01/31 12:45:37;;;;;;;34.20;5.83;;;5.50;99.90;;;;;;5150453;28;20453;-49
2022/01/31 12:48:08;;;;;;;32.70;7.03;;;5.50;99.90;;;;;;5159788;28;20475;-50
2022/01/31 12:50:42;;;;;;;34.00;7.57;;;5.40;99.90;;;;;;5156273;28;20525;-50
2022/01/31 12:53:35;;;;;;;32.67;6.63;;;5.30;99.90;;;;;;5156175;28;20187;-50
2022/01/31 12:56:25;;;;;;;33.13;7.40;;;5.40;99.90;;;;;;5145565;28;20470;-49
2022/01/31 12:59:17;;;;;;;41.27;6.70;;;5.30;99.90;;;;;;5151155;28;20430;-50
2022/01/31 13:01:50;;;;;;;23.93;5.80;;;5.10;99.90;;;;;;5154784;28;20539;-48
2022/01/31 13:04:23;;;;;;;16.80;5.17;;;5.10;99.90;;;;;;5141260;28;20784;-50
2022/01/31 13:07:09;;;;;;;39.50;7.17;;;5.10;99.90;;;;;;5140349;28;20568;-50
2022/01/31 13:09:39;;;;;;;40.47;7.83;;;5.20;99.90;;;;;;5141526;28;20437;-50
2022/01/31 13:12:14;;;;;;;29.93;6.30;;;5.20;99.90;;;;;;5143530;28;20462;-50
2022/01/31 13:14:50;;;;;;;21.50;7.00;;;5.20;99.90;;;;;;5130637;28;20197;-49
2022/01/31 13:17:24;;;;;;;23.10;6.27;;;5.20;99.90;;;;;;5141501;28;20854;-50
2022/01/31 13:19:57;;;;;;;26.97;6.40;;;5.10;99.90;;;;;;5160098;28;20527;-50
2022/01/31 13:22:41;;;;;;;36.50;6.60;;;5.00;99.90;;;;;;5157205;28;20428;-49
2022/01/31 13:25:14;;;;;;;20.87;6.67;;;5.00;99.90;;;;;;5158971;28;20472;-50
2022/01/31 13:27:46;;;;;;;30.07;6.10;;;4.90;99.90;;;;;;5148695;28;20566;-49
2022/01/31 13:30:20;;;;;;;33.30;6.77;;;4.80;99.90;;;;;;5139151;28;20479;-50
2022/01/31 13:32:52;;;;;;;29.27;6.47;;;4.70;99.90;;;;;;5161045;28;20464;-49
2022/01/31 13:35:27;;;;;;;15.67;6.03;;;4.80;99.90;;;;;;5158563;28;20452;-51
2022/01/31 13:38:01;;;;;;;29.40;6.00;;;4.90;99.90;;;;;;5158869;28;20446;-48
2022/01/31 13:40:42;;;;;;;37.57;7.00;;;4.80;99.90;;;;;;5145949;28;20505;-48
2022/01/31 13:43:38;;;;;;;24.20;7.37;;;4.80;99.90;;;;;;5158443;28;20443;-49
2022/01/31 13:46:20;;;;;;;15.37;5.37;;;4.70;99.90;;;;;;5159943;28;20432;-50
2022/01/31 13:51:41;;;;;;;26.90;6.10;;;4.70;99.90;;;;;;5167856;28;20546;-50
2022/01/31 13:54:22;;;;;;;34.90;7.07;;;4.50;99.90;;;;;;5164550;28;20479;-49
2022/01/31 13:56:56;;;;;;;24.17;5.20;;;4.40;99.90;;;;;;5147002;28;20470;-50
2022/01/31 13:59:28;;;;;;;42.87;7.53;;;4.40;99.90;;;;;;5143969;28;20462;-50
2022/01/31 14:02:13;;;;;;;27.60;6.10;;;4.40;99.90;;;;;;5150029;28;20506;-50
2022/01/31 14:04:43;;;;;;;30.23;5.97;;;4.50;99.90;;;;;;5163401;28;20435;-49
2022/01/31 14:07:29;;;;;;;23.70;6.67;;;4.50;99.90;;;;;;5132733;28;20482;-50
2022/01/31 14:10:00;;;;;;;30.17;7.40;;;4.50;99.90;;;;;;5145628;28;20181;-50
2022/01/31 14:12:30;;;;;;;18.47;5.87;;;4.40;99.90;;;;;;5166841;28;20527;-49
2022/01/31 14:15:07;;;;;;;13.90;5.20;;;4.30;99.90;;;;;;5159439;28;20684;-49
2022/01/31 14:17:39;;;;;;;30.20;7.00;;;4.30;99.90;;;;;;5143095;28;20351;-49
2022/01/31 14:20:10;;;;;;;34.67;7.00;;;4.20;99.90;;;;;;5143820;28;20971;-52
2022/01/31 14:22:41;;;;;;;25.77;6.70;;;4.20;99.90;;;;;;5147057;28;20967;-50
2022/01/31 14:25:12;;;;;;;27.30;6.27;;;4.20;99.90;;;;;;5161524;28;20441;-50
2022/01/31 14:27:50;;;;;;;28.20;7.00;;;4.10;99.90;;;;;;5165766;28;20681;-51
2022/01/31 14:30:22;;;;;;;37.67;8.53;;;4.10;99.90;;;;;;5161743;28;20814;-49
2022/01/31 14:33:07;;;;;;;19.60;7.80;;;4.10;99.90;;;;;;5149808;28;20451;-50
2022/01/31 14:35:37;;;;;;;30.83;7.47;;;4.10;99.90;;;;;;5161865;28;20781;-52
2022/01/31 14:38:22;;;;;;;31.30;5.83;;;4.10;99.90;;;;;;5161518;28;20444;-51
2022/01/31 14:49:12;;;;;;;27.23;6.90;;;4.00;99.90;;;;;;5162495;28;20425;-51
2022/01/31 14:51:43;;;;;;;35.33;6.37;;;4.00;99.90;;;;;;5147732;28;20810;-50
2022/01/31 14:54:15;;;;;;;31.57;7.23;;;4.00;99.90;;;;;;5163071;28;21840;-48
2022/01/31 14:56:46;;;;;;;22.83;7.63;;;4.00;99.90;;;;;;5143205;28;20690;-50
2022/01/31 14:59:17;;;;;;;24.67;7.67;;;3.90;99.90;;;;;;5144152;28;20463;-50
2022/01/31 15:01:47;;;;;;;30.50;6.47;;;4.00;99.90;;;;;;5159759;28;20487;-48
2022/01/31 15:04:20;;;;;;;24.97;6.30;;;3.90;99.90;;;;;;5164588;28;20283;-49
2022/01/31 15:06:51;;;;;;;26.07;6.37;;;3.90;99.90;;;;;;5155053;28;20201;-49
2022/01/31 15:09:22;;;;;;;28.73;7.83;;;3.90;99.90;;;;;;5155287;28;20449;-50
2022/01/31 15:11:53;;;;;;;13.63;6.03;;;3.90;99.90;;;;;;5156715;28;20204;-48
2022/01/31 15:14:24;;;;;;;24.13;5.83;;;3.80;99.90;;;;;;5149409;28;20499;-50
2022/01/31 15:16:54;;;;;;;26.90;6.03;;;3.80;99.90;;;;;;5150701;28;20193;-50
2022/01/31 15:19:25;;;;;;;42.07;8.03;;;3.80;99.90;;;;;;5158399;28;20220;-48
2022/01/31 15:21:56;;;;;;;40.57;7.73;;;3.70;99.90;;;;;;5162776;28;20220;-50
2022/01/31 15:24:26;;;;;;;24.97;5.37;;;3.60;99.90;;;;;;5148625;28;20181;-49
2022/01/31 15:26:57;;;;;;;37.13;6.90;;;3.50;99.90;;;;;;5141803;28;20469;-51
2022/01/31 15:29:28;;;;;;;29.63;6.90;;;3.50;99.90;;;;;;5153185;28;20679;-48